sensor_id;sensor_type;location;lat;lon;timestamp;P1;durP1;ratioP1;P2;durP2;ratioP2
50988;SDS011;37008;52.210;21.112;2022-08-03T00:01:03;13.75;;;10.68;;
50988;SDS011;37008;52.210;21.112;2022-08-03T00:03:29;15.38;;;10.18;;
50988;SDS011;37008;52.210;21.112;2022-08-03T00:05:55;14.68;;;11.85;;
50988;SDS011;37008;52.210;21.112;2022-08-03T00:08:20;13.73;;;9.85;;
50988;SDS011;37008;52.210;21.112;2022-08-03T00:10:46;14.30;;;11.52;;
50988;SDS011;37008;52.210;21.112;2022-08-03T00:13:12;16.10;;;9.60;;
50988;SDS011;37008;52.210;21.112;2022-08-03T00:15:38;13.20;;;10.15;;
50988;SDS011;37008;52.210;21.112;2022-08-03T00:18:05;18.10;;;10.73;;
50988;SDS011;37008;52.210;21.112;2022-08-03T00:20:31;17.55;;;10.45;;
50988;SDS011;37008;52.210;21.112;2022-08-03T00:22:57;13.65;;;9.80;;
50988;SDS011;37008;52.210;21.112;2022-08-03T00:25:23;13.85;;;11.43;;
50988;SDS011;37008;52.210;21.112;2022-08-03T00:27:48;12.70;;;10.32;;
50988;SDS011;37008;52.210;21.112;2022-08-03T00:30:14;12.88;;;9.68;;
50988;SDS011;37008;52.210;21.112;2022-08-03T00:32:43;13.32;;;10.35;;
50988;SDS011;37008;52.210;21.112;2022-08-03T00:35:08;14.50;;;9.65;;
50988;SDS011;37008;52.210;21.112;2022-08-03T00:37:34;12.82;;;9.30;;
50988;SDS011;37008;52.210;21.112;2022-08-03T00:40:00;17.02;;;10.15;;
50988;SDS011;37008;52.210;21.112;2022-08-03T00:42:26;12.30;;;10.00;;
50988;SDS011;37008;52.210;21.112;2022-08-03T00:44:51;11.95;;;10.73;;
50988;SDS011;37008;52.210;21.112;2022-08-03T00:47:17;17.27;;;10.05;;
50988;SDS011;37008;52.210;21.112;2022-08-03T00:49:43;12.30;;;9.98;;
50988;SDS011;37008;52.210;21.112;2022-08-03T00:52:08;15.85;;;9.50;;
50988;SDS011;37008;52.210;21.112;2022-08-03T00:54:36;16.27;;;9.77;;
50988;SDS011;37008;52.210;21.112;2022-08-03T00:57:02;13.75;;;10.48;;
50988;SDS011;37008;52.210;21.112;2022-08-03T00:59:29;15.05;;;10.25;;
50988;SDS011;37008;52.210;21.112;2022-08-03T01:01:55;17.05;;;9.80;;
50988;SDS011;37008;52.210;21.112;2022-08-03T01:04:21;13.70;;;9.77;;
50988;SDS011;37008;52.210;21.112;2022-08-03T01:14:54;15.73;;;10.02;;
50988;SDS011;37008;52.210;21.112;2022-08-03T01:17:33;12.80;;;9.85;;
50988;SDS011;37008;52.210;21.112;2022-08-03T01:20:08;13.77;;;9.68;;
50988;SDS011;37008;52.210;21.112;2022-08-03T01:30:32;13.77;;;9.82;;
50988;SDS011;37008;52.210;21.112;2022-08-03T01:33:05;15.32;;;10.40;;
50988;SDS011;37008;52.210;21.112;2022-08-03T01:35:36;16.60;;;10.35;;
50988;SDS011;37008;52.210;21.112;2022-08-03T01:38:14;11.73;;;9.50;;
50988;SDS011;37008;52.210;21.112;2022-08-03T01:40:48;13.25;;;10.65;;
50988;SDS011;37008;52.210;21.112;2022-08-03T01:43:18;13.30;;;10.38;;
50988;SDS011;37008;52.210;21.112;2022-08-03T01:45:47;16.35;;;11.30;;
50988;SDS011;37008;52.210;21.112;2022-08-03T01:48:14;15.68;;;13.00;;
50988;SDS011;37008;52.210;21.112;2022-08-03T01:50:41;12.40;;;10.32;;
50988;SDS011;37008;52.210;21.112;2022-08-03T01:53:08;14.00;;;11.38;;
50988;SDS011;37008;52.210;21.112;2022-08-03T01:55:34;13.43;;;10.80;;
50988;SDS011;37008;52.210;21.112;2022-08-03T01:58:02;17.35;;;9.52;;
50988;SDS011;37008;52.210;21.112;2022-08-03T02:00:29;10.48;;;9.38;;
50988;SDS011;37008;52.210;21.112;2022-08-03T02:02:55;10.90;;;9.48;;
50988;SDS011;37008;52.210;21.112;2022-08-03T02:05:22;11.55;;;9.38;;
50988;SDS011;37008;52.210;21.112;2022-08-03T02:07:50;13.38;;;9.70;;
50988;SDS011;37008;52.210;21.112;2022-08-03T02:10:17;13.63;;;9.68;;
50988;SDS011;37008;52.210;21.112;2022-08-03T02:12:45;11.48;;;9.93;;
50988;SDS011;37008;52.210;21.112;2022-08-03T02:15:14;17.65;;;10.90;;
50988;SDS011;37008;52.210;21.112;2022-08-03T02:17:40;17.75;;;12.00;;
50988;SDS011;37008;52.210;21.112;2022-08-03T02:20:08;13.90;;;10.35;;
50988;SDS011;37008;52.210;21.112;2022-08-03T02:22:40;13.63;;;10.25;;
50988;SDS011;37008;52.210;21.112;2022-08-03T02:25:08;12.45;;;10.20;;
50988;SDS011;37008;52.210;21.112;2022-08-03T02:27:35;13.25;;;9.82;;
50988;SDS011;37008;52.210;21.112;2022-08-03T02:30:04;12.40;;;10.20;;
50988;SDS011;37008;52.210;21.112;2022-08-03T02:32:36;12.00;;;10.52;;
50988;SDS011;37008;52.210;21.112;2022-08-03T02:35:04;13.98;;;9.43;;
50988;SDS011;37008;52.210;21.112;2022-08-03T02:37:33;11.23;;;10.02;;
50988;SDS011;37008;52.210;21.112;2022-08-03T02:40:05;14.80;;;10.32;;
50988;SDS011;37008;52.210;21.112;2022-08-03T02:42:33;19.25;;;11.10;;
50988;SDS011;37008;52.210;21.112;2022-08-03T02:45:02;16.42;;;9.02;;
50988;SDS011;37008;52.210;21.112;2022-08-03T02:47:31;17.98;;;8.98;;
50988;SDS011;37008;52.210;21.112;2022-08-03T02:50:00;9.70;;;8.77;;
50988;SDS011;37008;52.210;21.112;2022-08-03T02:52:28;14.23;;;9.75;;
50988;SDS011;37008;52.210;21.112;2022-08-03T02:54:59;11.98;;;9.10;;
50988;SDS011;37008;52.210;21.112;2022-08-03T02:57:27;10.63;;;9.15;;
50988;SDS011;37008;52.210;21.112;2022-08-03T02:59:54;13.35;;;8.90;;
50988;SDS011;37008;52.210;21.112;2022-08-03T03:02:23;12.48;;;9.00;;
50988;SDS011;37008;52.210;21.112;2022-08-03T03:04:50;13.02;;;8.85;;
50988;SDS011;37008;52.210;21.112;2022-08-03T03:07:17;16.90;;;9.30;;
50988;SDS011;37008;52.210;21.112;2022-08-03T03:09:44;13.60;;;9.57;;
50988;SDS011;37008;52.210;21.112;2022-08-03T03:12:11;11.98;;;10.25;;
50988;SDS011;37008;52.210;21.112;2022-08-03T03:14:37;10.25;;;9.25;;
50988;SDS011;37008;52.210;21.112;2022-08-03T03:17:03;10.95;;;9.10;;
50988;SDS011;37008;52.210;21.112;2022-08-03T03:19:33;10.15;;;8.30;;
50988;SDS011;37008;52.210;21.112;2022-08-03T03:21:59;12.45;;;9.38;;
50988;SDS011;37008;52.210;21.112;2022-08-03T03:24:27;10.07;;;9.07;;
50988;SDS011;37008;52.210;21.112;2022-08-03T03:26:54;12.15;;;9.88;;
50988;SDS011;37008;52.210;21.112;2022-08-03T03:29:20;13.85;;;10.48;;
50988;SDS011;37008;52.210;21.112;2022-08-03T03:31:46;11.15;;;9.20;;
50988;SDS011;37008;52.210;21.112;2022-08-03T03:34:12;14.25;;;9.88;;
50988;SDS011;37008;52.210;21.112;2022-08-03T03:36:38;10.40;;;9.32;;
50988;SDS011;37008;52.210;21.112;2022-08-03T03:39:04;16.10;;;9.32;;
50988;SDS011;37008;52.210;21.112;2022-08-03T03:41:30;12.30;;;8.88;;
50988;SDS011;37008;52.210;21.112;2022-08-03T03:43:56;9.73;;;8.82;;
50988;SDS011;37008;52.210;21.112;2022-08-03T03:46:22;15.40;;;8.73;;
50988;SDS011;37008;52.210;21.112;2022-08-03T03:48:47;12.13;;;9.07;;
50988;SDS011;37008;52.210;21.112;2022-08-03T03:51:13;18.63;;;10.07;;
50988;SDS011;37008;52.210;21.112;2022-08-03T03:53:39;10.43;;;9.35;;
50988;SDS011;37008;52.210;21.112;2022-08-03T03:56:06;11.27;;;9.82;;
50988;SDS011;37008;52.210;21.112;2022-08-03T03:58:32;12.00;;;9.70;;
50988;SDS011;37008;52.210;21.112;2022-08-03T04:00:57;19.58;;;10.90;;
50988;SDS011;37008;52.210;21.112;2022-08-03T04:03:23;13.55;;;11.75;;
50988;SDS011;37008;52.210;21.112;2022-08-03T04:05:49;14.85;;;13.05;;
50988;SDS011;37008;52.210;21.112;2022-08-03T04:08:33;16.67;;;12.40;;
50988;SDS011;37008;52.210;21.112;2022-08-03T04:11:37;20.58;;;14.88;;
50988;SDS011;37008;52.210;21.112;2022-08-03T04:14:06;17.73;;;13.88;;
50988;SDS011;37008;52.210;21.112;2022-08-03T04:16:37;19.25;;;14.88;;
50988;SDS011;37008;52.210;21.112;2022-08-03T04:19:07;18.58;;;13.85;;
50988;SDS011;37008;52.210;21.112;2022-08-03T04:21:37;19.88;;;14.98;;
50988;SDS011;37008;52.210;21.112;2022-08-03T04:24:06;20.25;;;15.20;;
50988;SDS011;37008;52.210;21.112;2022-08-03T04:26:36;18.15;;;15.38;;
50988;SDS011;37008;52.210;21.112;2022-08-03T04:29:05;20.15;;;14.50;;
50988;SDS011;37008;52.210;21.112;2022-08-03T04:31:33;18.08;;;15.10;;
50988;SDS011;37008;52.210;21.112;2022-08-03T04:34:00;21.27;;;13.88;;
50988;SDS011;37008;52.210;21.112;2022-08-03T04:36:27;16.17;;;13.88;;
50988;SDS011;37008;52.210;21.112;2022-08-03T04:39:05;15.77;;;13.20;;
50988;SDS011;37008;52.210;21.112;2022-08-03T04:41:34;14.73;;;12.52;;
50988;SDS011;37008;52.210;21.112;2022-08-03T04:44:01;13.73;;;12.02;;
50988;SDS011;37008;52.210;21.112;2022-08-03T04:46:31;13.13;;;11.70;;
50988;SDS011;37008;52.210;21.112;2022-08-03T04:49:01;18.15;;;14.93;;
50988;SDS011;37008;52.210;21.112;2022-08-03T04:51:27;18.77;;;13.88;;
50988;SDS011;37008;52.210;21.112;2022-08-03T04:53:53;17.25;;;14.88;;
50988;SDS011;37008;52.210;21.112;2022-08-03T04:56:19;16.83;;;14.98;;
50988;SDS011;37008;52.210;21.112;2022-08-03T04:58:44;21.00;;;14.90;;
50988;SDS011;37008;52.210;21.112;2022-08-03T05:01:10;20.17;;;14.85;;
50988;SDS011;37008;52.210;21.112;2022-08-03T05:03:36;16.98;;;15.20;;
50988;SDS011;37008;52.210;21.112;2022-08-03T05:06:02;19.95;;;15.73;;
50988;SDS011;37008;52.210;21.112;2022-08-03T05:08:28;21.05;;;16.55;;
50988;SDS011;37008;52.210;21.112;2022-08-03T05:10:54;17.75;;;15.93;;
50988;SDS011;37008;52.210;21.112;2022-08-03T05:13:20;20.90;;;15.77;;
50988;SDS011;37008;52.210;21.112;2022-08-03T05:15:45;25.73;;;17.45;;
50988;SDS011;37008;52.210;21.112;2022-08-03T05:18:11;22.85;;;16.63;;
50988;SDS011;37008;52.210;21.112;2022-08-03T05:20:37;19.83;;;17.40;;
50988;SDS011;37008;52.210;21.112;2022-08-03T05:23:02;23.38;;;18.52;;
50988;SDS011;37008;52.210;21.112;2022-08-03T05:25:28;21.98;;;18.60;;
50988;SDS011;37008;52.210;21.112;2022-08-03T05:27:54;22.08;;;18.73;;
50988;SDS011;37008;52.210;21.112;2022-08-03T05:30:20;25.65;;;18.00;;
50988;SDS011;37008;52.210;21.112;2022-08-03T05:32:46;23.15;;;19.10;;
50988;SDS011;37008;52.210;21.112;2022-08-03T05:35:11;20.45;;;18.25;;
50988;SDS011;37008;52.210;21.112;2022-08-03T05:37:37;31.00;;;18.98;;
50988;SDS011;37008;52.210;21.112;2022-08-03T05:40:03;25.77;;;19.65;;
50988;SDS011;37008;52.210;21.112;2022-08-03T05:42:29;22.13;;;18.58;;
50988;SDS011;37008;52.210;21.112;2022-08-03T05:44:55;22.35;;;19.95;;
50988;SDS011;37008;52.210;21.112;2022-08-03T05:47:21;29.38;;;20.25;;
50988;SDS011;37008;52.210;21.112;2022-08-03T05:49:47;23.08;;;18.60;;
50988;SDS011;37008;52.210;21.112;2022-08-03T05:52:13;27.58;;;21.70;;
50988;SDS011;37008;52.210;21.112;2022-08-03T05:54:38;23.10;;;19.50;;
50988;SDS011;37008;52.210;21.112;2022-08-03T05:57:04;25.20;;;18.63;;
50988;SDS011;37008;52.210;21.112;2022-08-03T05:59:33;21.88;;;18.92;;
50988;SDS011;37008;52.210;21.112;2022-08-03T06:02:14;23.15;;;19.95;;
50988;SDS011;37008;52.210;21.112;2022-08-03T06:04:40;27.52;;;20.25;;
50988;SDS011;37008;52.210;21.112;2022-08-03T06:07:06;28.38;;;21.08;;
50988;SDS011;37008;52.210;21.112;2022-08-03T06:09:41;22.63;;;20.10;;
50988;SDS011;37008;52.210;21.112;2022-08-03T06:12:06;22.15;;;19.75;;
50988;SDS011;37008;52.210;21.112;2022-08-03T06:14:34;21.67;;;18.77;;
50988;SDS011;37008;52.210;21.112;2022-08-03T06:17:01;23.73;;;20.83;;
50988;SDS011;37008;52.210;21.112;2022-08-03T06:19:27;24.50;;;20.77;;
50988;SDS011;37008;52.210;21.112;2022-08-03T06:21:56;23.13;;;19.17;;
50988;SDS011;37008;52.210;21.112;2022-08-03T06:24:22;21.23;;;18.27;;
50988;SDS011;37008;52.210;21.112;2022-08-03T06:26:48;20.52;;;18.25;;
50988;SDS011;37008;52.210;21.112;2022-08-03T06:29:14;18.42;;;16.63;;
50988;SDS011;37008;52.210;21.112;2022-08-03T06:31:39;21.35;;;16.50;;
50988;SDS011;37008;52.210;21.112;2022-08-03T06:34:05;18.58;;;15.95;;
50988;SDS011;37008;52.210;21.112;2022-08-03T06:36:30;19.27;;;16.27;;
50988;SDS011;37008;52.210;21.112;2022-08-03T06:38:57;22.30;;;17.05;;
50988;SDS011;37008;52.210;21.112;2022-08-03T06:41:23;17.50;;;15.73;;
50988;SDS011;37008;52.210;21.112;2022-08-03T06:43:49;18.23;;;15.93;;
50988;SDS011;37008;52.210;21.112;2022-08-03T06:46:15;22.27;;;16.70;;
50988;SDS011;37008;52.210;21.112;2022-08-03T06:48:40;19.52;;;16.85;;
50988;SDS011;37008;52.210;21.112;2022-08-03T06:51:06;22.02;;;16.83;;
50988;SDS011;37008;52.210;21.112;2022-08-03T06:53:32;21.60;;;17.58;;
50988;SDS011;37008;52.210;21.112;2022-08-03T06:55:58;19.00;;;17.00;;
50988;SDS011;37008;52.210;21.112;2022-08-03T06:58:23;20.35;;;18.20;;
50988;SDS011;37008;52.210;21.112;2022-08-03T07:00:49;21.80;;;19.38;;
50988;SDS011;37008;52.210;21.112;2022-08-03T07:03:15;21.38;;;17.80;;
50988;SDS011;37008;52.210;21.112;2022-08-03T07:05:41;21.92;;;18.02;;
50988;SDS011;37008;52.210;21.112;2022-08-03T07:08:07;21.70;;;18.67;;
50988;SDS011;37008;52.210;21.112;2022-08-03T07:10:33;19.63;;;17.52;;
50988;SDS011;37008;52.210;21.112;2022-08-03T07:12:58;23.70;;;18.48;;
50988;SDS011;37008;52.210;21.112;2022-08-03T07:15:24;20.67;;;17.45;;
50988;SDS011;37008;52.210;21.112;2022-08-03T07:17:50;21.92;;;19.83;;
50988;SDS011;37008;52.210;21.112;2022-08-03T07:20:16;23.60;;;20.95;;
50988;SDS011;37008;52.210;21.112;2022-08-03T07:22:42;30.33;;;20.67;;
50988;SDS011;37008;52.210;21.112;2022-08-03T07:25:08;22.65;;;19.90;;
50988;SDS011;37008;52.210;21.112;2022-08-03T07:27:34;25.17;;;21.75;;
50988;SDS011;37008;52.210;21.112;2022-08-03T07:30:01;22.67;;;20.48;;
50988;SDS011;37008;52.210;21.112;2022-08-03T07:32:29;22.80;;;20.35;;
50988;SDS011;37008;52.210;21.112;2022-08-03T07:34:55;22.15;;;19.80;;
50988;SDS011;37008;52.210;21.112;2022-08-03T07:37:21;25.83;;;19.65;;
50988;SDS011;37008;52.210;21.112;2022-08-03T07:39:47;20.92;;;18.92;;
50988;SDS011;37008;52.210;21.112;2022-08-03T07:42:12;20.48;;;18.33;;
50988;SDS011;37008;52.210;21.112;2022-08-03T07:44:39;23.02;;;19.70;;
50988;SDS011;37008;52.210;21.112;2022-08-03T07:47:05;27.38;;;21.15;;
50988;SDS011;37008;52.210;21.112;2022-08-03T07:49:31;25.98;;;20.77;;
50988;SDS011;37008;52.210;21.112;2022-08-03T07:51:56;24.98;;;19.17;;
50988;SDS011;37008;52.210;21.112;2022-08-03T07:54:41;22.45;;;17.83;;
50988;SDS011;37008;52.210;21.112;2022-08-03T07:57:07;19.35;;;17.02;;
50988;SDS011;37008;52.210;21.112;2022-08-03T07:59:35;23.80;;;17.75;;
50988;SDS011;37008;52.210;21.112;2022-08-03T08:02:07;21.38;;;17.33;;
50988;SDS011;37008;52.210;21.112;2022-08-03T08:04:33;26.90;;;17.73;;
50988;SDS011;37008;52.210;21.112;2022-08-03T08:06:58;23.08;;;17.70;;
50988;SDS011;37008;52.210;21.112;2022-08-03T08:09:24;22.90;;;17.63;;
50988;SDS011;37008;52.210;21.112;2022-08-03T08:11:50;17.67;;;15.98;;
50988;SDS011;37008;52.210;21.112;2022-08-03T08:14:15;22.73;;;16.55;;
50988;SDS011;37008;52.210;21.112;2022-08-03T08:16:41;20.60;;;17.40;;
50988;SDS011;37008;52.210;21.112;2022-08-03T08:19:06;19.60;;;16.92;;
50988;SDS011;37008;52.210;21.112;2022-08-03T08:21:32;18.02;;;16.10;;
50988;SDS011;37008;52.210;21.112;2022-08-03T08:23:58;18.55;;;16.55;;
50988;SDS011;37008;52.210;21.112;2022-08-03T08:26:24;19.60;;;16.60;;
50988;SDS011;37008;52.210;21.112;2022-08-03T08:28:49;17.27;;;15.02;;
50988;SDS011;37008;52.210;21.112;2022-08-03T08:31:16;21.77;;;15.40;;
50988;SDS011;37008;52.210;21.112;2022-08-03T08:33:42;20.52;;;15.80;;
50988;SDS011;37008;52.210;21.112;2022-08-03T08:36:07;20.60;;;16.08;;
50988;SDS011;37008;52.210;21.112;2022-08-03T08:38:33;20.02;;;14.20;;
50988;SDS011;37008;52.210;21.112;2022-08-03T08:40:59;23.95;;;14.48;;
50988;SDS011;37008;52.210;21.112;2022-08-03T08:43:25;27.00;;;14.52;;
50988;SDS011;37008;52.210;21.112;2022-08-03T08:45:52;20.05;;;13.15;;
50988;SDS011;37008;52.210;21.112;2022-08-03T08:48:20;24.83;;;13.20;;
50988;SDS011;37008;52.210;21.112;2022-08-03T08:50:51;15.13;;;12.32;;
50988;SDS011;37008;52.210;21.112;2022-08-03T08:53:21;18.48;;;12.00;;
50988;SDS011;37008;52.210;21.112;2022-08-03T08:55:49;18.17;;;11.18;;
50988;SDS011;37008;52.210;21.112;2022-08-03T08:58:15;17.00;;;11.15;;
50988;SDS011;37008;52.210;21.112;2022-08-03T09:00:43;14.90;;;10.63;;
50988;SDS011;37008;52.210;21.112;2022-08-03T09:03:10;14.40;;;10.68;;
50988;SDS011;37008;52.210;21.112;2022-08-03T09:05:38;16.05;;;10.23;;
50988;SDS011;37008;52.210;21.112;2022-08-03T09:08:07;17.10;;;8.88;;
50988;SDS011;37008;52.210;21.112;2022-08-03T09:10:33;16.73;;;10.27;;
50988;SDS011;37008;52.210;21.112;2022-08-03T09:12:59;12.13;;;8.93;;
50988;SDS011;37008;52.210;21.112;2022-08-03T09:15:25;12.77;;;8.20;;
50988;SDS011;37008;52.210;21.112;2022-08-03T09:17:53;15.05;;;8.40;;
50988;SDS011;37008;52.210;21.112;2022-08-03T09:20:22;14.43;;;7.95;;
50988;SDS011;37008;52.210;21.112;2022-08-03T09:22:57;10.07;;;7.38;;
50988;SDS011;37008;52.210;21.112;2022-08-03T09:27:53;10.07;;;6.10;;
50988;SDS011;37008;52.210;21.112;2022-08-03T09:30:19;10.98;;;5.97;;
50988;SDS011;37008;52.210;21.112;2022-08-03T09:32:45;10.00;;;5.32;;
50988;SDS011;37008;52.210;21.112;2022-08-03T09:35:12;11.10;;;6.00;;
50988;SDS011;37008;52.210;21.112;2022-08-03T09:37:38;8.95;;;5.72;;
50988;SDS011;37008;52.210;21.112;2022-08-03T09:40:04;12.60;;;5.20;;
50988;SDS011;37008;52.210;21.112;2022-08-03T09:42:31;10.13;;;5.32;;
50988;SDS011;37008;52.210;21.112;2022-08-03T09:45:02;10.45;;;5.85;;
50988;SDS011;37008;52.210;21.112;2022-08-03T09:47:29;7.15;;;5.53;;
50988;SDS011;37008;52.210;21.112;2022-08-03T09:52:33;10.15;;;6.32;;
50988;SDS011;37008;52.210;21.112;2022-08-03T09:55:01;8.37;;;5.30;;
50988;SDS011;37008;52.210;21.112;2022-08-03T09:57:33;13.63;;;6.50;;
50988;SDS011;37008;52.210;21.112;2022-08-03T10:00:17;11.40;;;6.43;;
50988;SDS011;37008;52.210;21.112;2022-08-03T10:02:43;10.30;;;5.88;;
50988;SDS011;37008;52.210;21.112;2022-08-03T10:05:12;8.60;;;5.75;;
50988;SDS011;37008;52.210;21.112;2022-08-03T10:07:45;10.73;;;5.88;;
50988;SDS011;37008;52.210;21.112;2022-08-03T10:10:11;8.18;;;5.60;;
50988;SDS011;37008;52.210;21.112;2022-08-03T10:12:39;11.68;;;5.95;;
50988;SDS011;37008;52.210;21.112;2022-08-03T10:15:05;11.43;;;5.75;;
50988;SDS011;37008;52.210;21.112;2022-08-03T10:17:32;8.48;;;5.25;;
50988;SDS011;37008;52.210;21.112;2022-08-03T10:19:58;14.55;;;6.22;;
50988;SDS011;37008;52.210;21.112;2022-08-03T10:22:27;16.10;;;5.70;;
50988;SDS011;37008;52.210;21.112;2022-08-03T10:25:05;13.95;;;5.53;;
50988;SDS011;37008;52.210;21.112;2022-08-03T10:27:33;13.63;;;5.93;;
50988;SDS011;37008;52.210;21.112;2022-08-03T10:30:02;10.88;;;5.75;;
50988;SDS011;37008;52.210;21.112;2022-08-03T10:32:37;10.98;;;6.18;;
50988;SDS011;37008;52.210;21.112;2022-08-03T10:37:40;17.73;;;6.00;;
50988;SDS011;37008;52.210;21.112;2022-08-03T10:40:16;8.45;;;5.75;;
50988;SDS011;37008;52.210;21.112;2022-08-03T10:42:46;8.23;;;5.15;;
50988;SDS011;37008;52.210;21.112;2022-08-03T10:45:19;14.48;;;5.90;;
50988;SDS011;37008;52.210;21.112;2022-08-03T10:47:48;11.35;;;5.75;;
50988;SDS011;37008;52.210;21.112;2022-08-03T10:50:17;12.10;;;5.20;;
50988;SDS011;37008;52.210;21.112;2022-08-03T10:53:00;9.32;;;4.85;;
50988;SDS011;37008;52.210;21.112;2022-08-03T10:55:31;7.90;;;4.63;;
50988;SDS011;37008;52.210;21.112;2022-08-03T11:01:13;9.55;;;4.97;;
50988;SDS011;37008;52.210;21.112;2022-08-03T11:06:18;7.85;;;4.20;;
50988;SDS011;37008;52.210;21.112;2022-08-03T11:09:35;5.82;;;4.03;;
50988;SDS011;37008;52.210;21.112;2022-08-03T11:11:40;6.63;;;4.00;;
50988;SDS011;37008;52.210;21.112;2022-08-03T11:17:19;9.70;;;3.97;;
50988;SDS011;37008;52.210;21.112;2022-08-03T11:19:42;7.47;;;4.40;;
50988;SDS011;37008;52.210;21.112;2022-08-03T11:22:09;8.13;;;3.83;;
50988;SDS011;37008;52.210;21.112;2022-08-03T11:35:15;6.45;;;4.25;;
50988;SDS011;37008;52.210;21.112;2022-08-03T11:48:35;7.20;;;3.88;;
50988;SDS011;37008;52.210;21.112;2022-08-03T11:51:17;7.20;;;4.30;;
50988;SDS011;37008;52.210;21.112;2022-08-03T11:53:50;8.63;;;4.60;;
50988;SDS011;37008;52.210;21.112;2022-08-03T11:56:24;8.45;;;4.20;;
50988;SDS011;37008;52.210;21.112;2022-08-03T11:58:51;9.98;;;4.30;;
50988;SDS011;37008;52.210;21.112;2022-08-03T12:01:20;6.03;;;4.20;;
50988;SDS011;37008;52.210;21.112;2022-08-03T12:03:46;7.40;;;3.97;;
50988;SDS011;37008;52.210;21.112;2022-08-03T12:06:13;10.50;;;4.50;;
50988;SDS011;37008;52.210;21.112;2022-08-03T12:08:40;6.90;;;4.18;;
50988;SDS011;37008;52.210;21.112;2022-08-03T12:11:08;9.73;;;4.25;;
50988;SDS011;37008;52.210;21.112;2022-08-03T12:13:37;9.75;;;4.38;;
50988;SDS011;37008;52.210;21.112;2022-08-03T12:16:02;6.93;;;4.15;;
50988;SDS011;37008;52.210;21.112;2022-08-03T12:18:28;6.05;;;4.15;;
50988;SDS011;37008;52.210;21.112;2022-08-03T12:21:03;9.05;;;4.22;;
50988;SDS011;37008;52.210;21.112;2022-08-03T12:23:33;6.80;;;4.15;;
50988;SDS011;37008;52.210;21.112;2022-08-03T12:26:08;7.90;;;4.18;;
50988;SDS011;37008;52.210;21.112;2022-08-03T12:28:34;5.30;;;3.95;;
50988;SDS011;37008;52.210;21.112;2022-08-03T12:31:04;7.40;;;3.90;;
50988;SDS011;37008;52.210;21.112;2022-08-03T12:33:31;7.15;;;4.05;;
50988;SDS011;37008;52.210;21.112;2022-08-03T12:36:17;8.93;;;3.92;;
50988;SDS011;37008;52.210;21.112;2022-08-03T12:38:43;12.27;;;4.40;;
50988;SDS011;37008;52.210;21.112;2022-08-03T12:41:27;6.47;;;4.00;;
50988;SDS011;37008;52.210;21.112;2022-08-03T12:44:01;7.18;;;4.03;;
50988;SDS011;37008;52.210;21.112;2022-08-03T12:46:32;8.13;;;3.95;;
50988;SDS011;37008;52.210;21.112;2022-08-03T12:49:12;5.15;;;4.03;;
50988;SDS011;37008;52.210;21.112;2022-08-03T12:57:10;21.75;;;3.97;;
50988;SDS011;37008;52.210;21.112;2022-08-03T12:59:40;7.40;;;4.13;;
50988;SDS011;37008;52.210;21.112;2022-08-03T13:02:18;7.90;;;4.22;;
50988;SDS011;37008;52.210;21.112;2022-08-03T13:04:45;7.72;;;4.75;;
50988;SDS011;37008;52.210;21.112;2022-08-03T13:07:12;6.15;;;3.70;;
50988;SDS011;37008;52.210;21.112;2022-08-03T13:14:46;7.15;;;4.00;;
50988;SDS011;37008;52.210;21.112;2022-08-03T13:17:13;4.63;;;4.05;;
50988;SDS011;37008;52.210;21.112;2022-08-03T13:19:40;5.68;;;3.75;;
50988;SDS011;37008;52.210;21.112;2022-08-03T13:24:43;10.35;;;3.80;;
50988;SDS011;37008;52.210;21.112;2022-08-03T13:27:10;5.50;;;4.05;;
50988;SDS011;37008;52.210;21.112;2022-08-03T13:29:36;5.45;;;3.90;;
50988;SDS011;37008;52.210;21.112;2022-08-03T13:32:02;7.00;;;3.85;;
50988;SDS011;37008;52.210;21.112;2022-08-03T13:34:29;8.40;;;3.88;;
50988;SDS011;37008;52.210;21.112;2022-08-03T13:36:55;4.65;;;3.65;;
50988;SDS011;37008;52.210;21.112;2022-08-03T13:39:20;5.47;;;3.97;;
50988;SDS011;37008;52.210;21.112;2022-08-03T13:41:46;12.65;;;4.00;;
50988;SDS011;37008;52.210;21.112;2022-08-03T13:44:13;5.43;;;3.67;;
50988;SDS011;37008;52.210;21.112;2022-08-03T13:46:39;7.55;;;3.80;;
50988;SDS011;37008;52.210;21.112;2022-08-03T13:49:05;4.93;;;3.90;;
50988;SDS011;37008;52.210;21.112;2022-08-03T13:51:31;5.65;;;3.80;;
50988;SDS011;37008;52.210;21.112;2022-08-03T13:53:57;5.90;;;3.72;;
50988;SDS011;37008;52.210;21.112;2022-08-03T13:56:24;11.27;;;4.05;;
50988;SDS011;37008;52.210;21.112;2022-08-03T13:58:50;8.73;;;4.18;;
50988;SDS011;37008;52.210;21.112;2022-08-03T14:01:16;5.47;;;3.75;;
50988;SDS011;37008;52.210;21.112;2022-08-03T14:03:41;7.43;;;3.63;;
50988;SDS011;37008;52.210;21.112;2022-08-03T14:06:07;5.72;;;3.78;;
50988;SDS011;37008;52.210;21.112;2022-08-03T14:08:33;4.28;;;3.40;;
50988;SDS011;37008;52.210;21.112;2022-08-03T14:10:59;7.47;;;3.80;;
50988;SDS011;37008;52.210;21.112;2022-08-03T14:13:24;5.07;;;3.50;;
50988;SDS011;37008;52.210;21.112;2022-08-03T14:15:50;5.53;;;3.80;;
50988;SDS011;37008;52.210;21.112;2022-08-03T14:18:16;4.80;;;3.50;;
50988;SDS011;37008;52.210;21.112;2022-08-03T14:20:43;6.85;;;3.70;;
50988;SDS011;37008;52.210;21.112;2022-08-03T14:23:09;10.45;;;3.97;;
50988;SDS011;37008;52.210;21.112;2022-08-03T14:25:34;6.18;;;3.75;;
50988;SDS011;37008;52.210;21.112;2022-08-03T14:28:00;7.32;;;3.60;;
50988;SDS011;37008;52.210;21.112;2022-08-03T14:30:26;9.07;;;4.10;;
50988;SDS011;37008;52.210;21.112;2022-08-03T14:32:51;4.95;;;3.47;;
50988;SDS011;37008;52.210;21.112;2022-08-03T14:35:17;8.82;;;3.75;;
50988;SDS011;37008;52.210;21.112;2022-08-03T14:37:42;4.65;;;3.33;;
50988;SDS011;37008;52.210;21.112;2022-08-03T14:40:08;4.05;;;3.65;;
50988;SDS011;37008;52.210;21.112;2022-08-03T14:42:35;10.27;;;3.88;;
50988;SDS011;37008;52.210;21.112;2022-08-03T14:45:00;6.88;;;3.33;;
50988;SDS011;37008;52.210;21.112;2022-08-03T14:47:26;6.25;;;3.63;;
50988;SDS011;37008;52.210;21.112;2022-08-03T14:49:52;6.25;;;4.18;;
50988;SDS011;37008;52.210;21.112;2022-08-03T14:52:17;8.30;;;3.50;;
50988;SDS011;37008;52.210;21.112;2022-08-03T14:54:44;12.18;;;4.00;;
50988;SDS011;37008;52.210;21.112;2022-08-03T14:57:09;6.90;;;3.90;;
50988;SDS011;37008;52.210;21.112;2022-08-03T14:59:35;5.95;;;3.53;;
50988;SDS011;37008;52.210;21.112;2022-08-03T15:02:00;5.35;;;3.50;;
50988;SDS011;37008;52.210;21.112;2022-08-03T15:04:26;8.07;;;4.28;;
50988;SDS011;37008;52.210;21.112;2022-08-03T15:06:52;6.15;;;4.50;;
50988;SDS011;37008;52.210;21.112;2022-08-03T15:09:17;4.93;;;4.13;;
50988;SDS011;37008;52.210;21.112;2022-08-03T15:11:43;5.72;;;4.45;;
50988;SDS011;37008;52.210;21.112;2022-08-03T15:14:08;10.80;;;4.65;;
50988;SDS011;37008;52.210;21.112;2022-08-03T15:16:34;5.60;;;3.80;;
50988;SDS011;37008;52.210;21.112;2022-08-03T15:19:00;7.40;;;3.83;;
50988;SDS011;37008;52.210;21.112;2022-08-03T15:21:26;7.85;;;4.30;;
50988;SDS011;37008;52.210;21.112;2022-08-03T15:23:51;8.13;;;4.30;;
50988;SDS011;37008;52.210;21.112;2022-08-03T15:26:18;11.10;;;4.40;;
50988;SDS011;37008;52.210;21.112;2022-08-03T15:28:44;7.40;;;4.50;;